Time;durP1;ratioP1;P1;durP2;ratioP2;P2;SDS_P1;SDS_P2;PMS_P1;PMS_P2;Temp;Humidity;BMP_temperature;BMP_pressure;BME280_temperature;BME280_humidity;BME280_pressure;Samples;Min_cycle;Max_cycle;Signal;HPM_P1;HPM_P2
2023/05/24 00:01:06;;;;;;;13.48;3.20;;;;;;;-146.27;84.15;83581.59;5036325;28;20447;-74
2023/05/24 00:03:33;;;;;;;11.43;3.15;;;;;;;-146.27;84.55;83565.53;5042489;28;20037;-74
2023/05/24 00:06:01;;;;;;;15.77;3.22;;;;;;;-146.27;85.10;83585.63;5038407;28;20108;-75
2023/05/24 00:08:26;;;;;;;10.95;2.83;;;;;;;-146.27;84.77;83571.56;5041628;28;20021;-74
2023/05/24 00:10:52;;;;;;;13.38;3.75;;;;;;;-146.27;84.96;83613.75;5032687;28;20032;-74
2023/05/24 00:13:17;;;;;;;12.95;3.08;;;;;;;-146.27;84.63;83607.72;5034334;28;20053;-74
2023/05/24 00:15:43;;;;;;;14.38;3.15;;;;;;;-146.27;85.21;83613.75;5035806;28;20040;-74
2023/05/24 00:18:08;;;;;;;12.30;3.17;;;;;;;-146.27;85.29;83611.75;5046360;28;20033;-73
2023/05/24 00:20:33;;;;;;;17.35;3.17;;;;;;;-146.27;85.56;83625.81;5037927;28;20553;-74
2023/05/24 00:22:59;;;;;;;18.50;3.10;;;;;;;-146.27;85.59;83621.81;5033895;28;20028;-74
2023/05/24 00:25:24;;;;;;;15.05;3.20;;;;;;;-146.27;85.87;83627.81;5050989;28;20033;-73
2023/05/24 00:27:50;;;;;;;11.23;2.75;;;;;;;-146.27;85.72;83613.75;5048108;28;20037;-73
2023/05/24 00:30:15;;;;;;;11.75;3.20;;;;;;;-146.27;86.40;83601.72;5050726;28;20041;-73
2023/05/24 00:32:40;;;;;;;12.48;2.88;;;;;;;-146.27;86.07;83637.88;5036545;28;20036;-74
2023/05/24 00:35:06;;;;;;;11.73;3.03;;;;;;;-146.27;86.32;83629.84;5046874;28;20028;-74
2023/05/24 00:37:31;;;;;;;13.18;2.70;;;;;;;-146.27;86.16;83647.91;5044440;28;20032;-75
2023/05/24 00:39:57;;;;;;;14.02;3.15;;;;;;;-146.27;86.26;83641.91;5045538;28;20732;-75
2023/05/24 00:42:22;;;;;;;14.60;2.80;;;;;;;-146.27;85.72;83670.03;5054659;28;20052;-74
2023/05/24 00:44:48;;;;;;;12.77;3.67;;;;;;;-146.27;85.54;83670.03;5056993;28;20036;-74
2023/05/24 00:47:14;;;;;;;16.63;3.53;;;;;;;-146.27;86.05;83645.91;5061567;28;20028;-74
2023/05/24 00:49:39;;;;;;;10.27;2.88;;;;;;;-146.27;86.86;83670.03;5037056;28;20096;-75
2023/05/24 00:52:05;;;;;;;16.05;3.30;;;;;;;-146.27;87.53;83657.97;5053426;28;20084;-74
2023/05/24 00:54:31;;;;;;;9.93;2.92;;;;;;;-146.27;87.13;83670.03;5046564;28;20032;-73
2023/05/24 00:56:57;;;;;;;9.55;3.33;;;;;;;-146.27;87.02;83684.09;5034482;28;20238;-73
2023/05/24 00:59:23;;;;;;;16.10;3.92;;;;;;;-146.27;87.07;83629.84;5034610;28;20591;-74
2023/05/24 01:01:48;;;;;;;11.95;2.58;;;;;;;-146.27;87.42;83684.09;5036534;28;20446;-74
2023/05/24 01:04:13;;;;;;;14.75;4.25;;;;;;;-146.27;87.24;83651.94;5056993;28;20333;-74
2023/05/24 01:06:50;;;;;;;21.33;3.15;;;;;;;-146.27;87.57;83692.13;5074192;28;20111;-74
2023/05/24 01:09:44;;;;;;;17.63;4.57;;;;;;;-146.27;87.59;83682.09;5058723;28;20108;-74
2023/05/24 01:12:26;;;;;;;13.70;3.88;;;;;;;-146.27;87.55;83657.97;5033701;28;20044;-74
2023/05/24 01:15:09;;;;;;;22.58;3.70;;;;;;;-146.27;87.64;83690.13;5047475;28;20025;-73
2023/05/24 01:17:52;;;;;;;17.17;3.37;;;;;;;-146.27;88.16;83706.19;5049437;28;20116;-74
2023/05/24 01:20:22;;;;;;;12.68;3.60;;;;;;;-146.27;88.17;83706.19;5037414;28;20057;-74
2023/05/24 01:23:06;;;;;;;12.20;3.30;;;;;;;-146.27;87.56;83718.25;5033869;28;20033;-74
2023/05/24 01:25:58;;;;;;;13.25;4.15;;;;;;;-146.27;87.74;83698.16;5034940;28;20516;-74
2023/05/24 01:28:26;;;;;;;12.80;3.05;;;;;;;-146.27;88.32;83710.22;5043058;28;20024;-74
2023/05/24 01:30:52;;;;;;;17.15;3.67;;;;;;;-146.27;87.75;83698.16;5044237;28;20025;-73
2023/05/24 01:33:18;;;;;;;13.45;3.58;;;;;;;-146.27;87.89;83718.25;5052178;28;20025;-75
2023/05/24 01:35:43;;;;;;;12.40;3.13;;;;;;;-146.27;87.94;83706.19;5053542;28;20487;-74
2023/05/24 01:38:11;;;;;;;13.25;3.22;;;;;;;-146.27;87.84;83659.97;5037859;28;20051;-74
2023/05/24 01:40:38;;;;;;;9.40;3.33;;;;;;;-146.27;88.35;83722.28;5050142;28;20172;-74
2023/05/24 01:43:29;;;;;;;16.65;3.70;;;;;;;-146.27;88.08;83674.03;5037990;28;20056;-74
2023/05/24 01:46:37;;;;;;;16.40;3.15;;;;;;;-146.27;88.07;83692.13;5052190;28;20166;-75
2023/05/24 01:49:17;;;;;;;17.30;3.28;;;;;;;-146.27;89.28;83686.09;5044992;28;20052;-74
2023/05/24 01:52:05;;;;;;;10.80;3.50;;;;;;;-146.27;88.05;83672.03;5039329;28;20037;-73
2023/05/24 01:54:36;;;;;;;18.23;3.40;;;;;;;-146.27;88.52;83657.97;5039003;28;20017;-74
2023/05/24 01:57:05;;;;;;;11.45;4.47;;;;;;;-146.27;88.23;83649.94;5061359;28;20024;-73
2023/05/24 01:59:32;;;;;;;19.55;3.75;;;;;;;-146.27;87.75;83651.94;5055288;28;20037;-73
2023/05/24 02:01:58;;;;;;;15.38;4.00;;;;;;;-146.27;87.78;83688.09;5052050;28;20061;-74
2023/05/24 02:04:24;;;;;;;22.85;4.18;;;;;;;-146.27;88.16;83786.56;5053022;28;20582;-74
2023/05/24 02:06:49;;;;;;;11.73;3.30;;;;;;;-146.27;88.08;83732.31;5034842;28;20029;-74
2023/05/24 02:09:15;;;;;;;16.88;3.65;;;;;;;-146.27;89.10;83742.38;5052987;28;20059;-74
2023/05/24 02:11:40;;;;;;;16.15;3.70;;;;;;;-146.27;88.85;83730.31;5040658;28;20045;-74
2023/05/24 02:14:05;;;;;;;16.20;3.15;;;;;;;-146.27;89.34;83726.28;5049326;28;20024;-75
2023/05/24 02:16:32;;;;;;;16.88;3.60;;;;;;;-146.27;89.43;83730.31;5052221;28;20044;-75
2023/05/24 02:18:57;;;;;;;9.57;2.80;;;;;;;-146.27;89.03;83744.38;5051948;28;20032;-74
2023/05/24 02:21:23;;;;;;;17.08;3.53;;;;;;;-146.27;88.44;83744.38;5052250;28;20029;-74
2023/05/24 02:23:48;;;;;;;25.52;3.60;;;;;;;-146.27;89.58;83706.19;5052159;28;20048;-74
2023/05/24 02:26:16;;;;;;;14.18;3.33;;;;;;;-146.27;88.78;83720.25;5048623;28;20108;-74
2023/05/24 02:28:42;;;;;;;16.10;3.15;;;;;;;-146.27;89.62;83736.34;5035117;28;20551;-74
2023/05/24 02:31:07;;;;;;;14.25;3.50;;;;;;;-146.27;89.01;83726.28;5047783;28;20033;-74
2023/05/24 02:33:34;;;;;;;11.88;2.85;;;;;;;-146.27;90.10;83734.31;5032571;28;20099;-74
2023/05/24 02:35:59;;;;;;;10.18;2.80;;;;;;;-146.27;89.67;83698.16;5050238;28;20032;-74
2023/05/24 02:38:25;;;;;;;14.00;3.72;;;;;;;-146.27;89.25;83730.31;5065396;28;20032;-74
2023/05/24 02:40:50;;;;;;;14.43;3.50;;;;;;;-146.27;89.78;83750.41;5072650;28;20020;-74
2023/05/24 02:43:16;;;;;;;9.25;3.35;;;;;;;-146.27;89.46;83710.22;5072382;28;20123;-75
2023/05/24 02:45:41;;;;;;;20.10;3.33;;;;;;;-146.27;90.00;83774.53;5035056;28;20504;-75
2023/05/24 02:48:06;;;;;;;12.85;2.80;;;;;;;-146.27;89.96;83786.56;5039271;28;20739;-74
2023/05/24 02:50:32;;;;;;;12.93;3.95;;;;;;;-146.27;90.63;83842.84;5036024;28;20100;-74
2023/05/24 02:52:57;;;;;;;16.10;4.18;;;;;;;-146.27;90.66;83782.56;5043272;28;20361;-74
2023/05/24 02:55:22;;;;;;;15.90;3.97;;;;;;;-146.27;90.54;83891.06;5042027;28;20033;-74
2023/05/24 02:57:48;;;;;;;20.83;3.80;;;;;;;-146.27;90.33;83754.44;5057430;28;20020;-75
2023/05/24 03:00:14;;;;;;;14.35;3.47;;;;;;;-146.27;90.42;83760.44;5063222;28;20028;-74
2023/05/24 03:02:40;;;;;;;10.45;3.08;;;;;;;-146.27;89.61;83750.41;5051193;28;20381;-75
2023/05/24 03:05:06;;;;;;;12.10;3.55;;;;;;;-146.27;90.31;83758.44;5050670;28;20025;-73
2023/05/24 03:07:32;;;;;;;11.55;3.20;;;;;;;-146.27;90.30;83720.25;5042311;28;20039;-74
2023/05/24 03:09:57;;;;;;;12.32;3.22;;;;;;;-146.27;90.27;83672.03;5045567;28;20033;-75
2023/05/24 03:12:22;;;;;;;17.75;3.55;;;;;;;-146.27;89.92;83766.47;5051341;28;20048;-74
2023/05/24 03:14:48;;;;;;;19.70;3.88;;;;;;;-146.27;89.97;83752.41;5050567;28;20021;-74
2023/05/24 03:17:13;;;;;;;20.25;3.80;;;;;;;-146.27;90.88;83746.38;5048344;28;20068;-74
2023/05/24 03:19:38;;;;;;;16.73;4.30;;;;;;;-146.27;90.82;83800.63;5054655;28;20082;-74
2023/05/24 03:22:04;;;;;;;19.15;3.78;;;;;;;-146.27;91.13;83780.53;5051331;28;20021;-75
2023/05/24 03:24:30;;;;;;;19.65;4.25;;;;;;;-146.27;91.18;83754.44;5038916;28;20025;-74
2023/05/24 03:26:56;;;;;;;13.70;3.47;;;;;;;-146.27;91.27;83836.81;5044419;28;20028;-74
2023/05/24 03:29:21;;;;;;;11.38;3.17;;;;;;;-146.27;91.18;83750.41;5051041;28;20040;-74
2023/05/24 03:31:47;;;;;;;13.38;3.38;;;;;;;-146.27;91.30;83782.56;5031233;28;20100;-74
2023/05/24 03:34:12;;;;;;;17.85;3.78;;;;;;;-146.27;91.21;83768.50;5041860;28;20053;-75
2023/05/24 03:36:38;;;;;;;12.85;3.60;;;;;;;-146.27;91.69;83778.53;5045946;28;20523;-75
2023/05/24 03:39:03;;;;;;;8.27;3.70;;;;;;;-146.27;91.01;83822.75;5061966;28;20120;-74
2023/05/24 03:41:29;;;;;;;12.35;3.70;;;;;;;-146.27;91.09;83856.91;5058257;28;20028;-75
2023/05/24 03:43:55;;;;;;;11.43;3.47;;;;;;;-146.27;92.96;83774.53;5048654;28;20074;-74
2023/05/24 03:46:20;;;;;;;17.35;3.65;;;;;;;-146.27;91.51;83800.63;5038304;28;20037;-74
2023/05/24 03:48:46;;;;;;;13.02;3.28;;;;;;;-146.27;91.85;83826.75;5050115;28;20540;-74
2023/05/24 03:51:12;;;;;;;18.73;4.20;;;;;;;-146.27;91.64;83786.56;5049964;28;20057;-75
2023/05/24 03:53:37;;;;;;;14.40;3.63;;;;;;;-146.27;91.52;83812.69;5050619;28;20057;-74
2023/05/24 03:56:02;;;;;;;14.68;4.32;;;;;;;-146.27;92.27;83814.72;5045301;28;20044;-74
2023/05/24 03:58:28;;;;;;;16.50;3.33;;;;;;;-146.27;92.01;83850.88;5049823;28;20024;-74
2023/05/24 04:00:53;;;;;;;15.63;3.60;;;;;;;-146.27;93.58;83792.59;5038261;28;20029;-74
2023/05/24 04:03:20;;;;;;;21.30;3.65;;;;;;;-146.27;91.91;83800.63;5037700;28;20125;-74
2023/05/24 04:05:45;;;;;;;13.40;3.70;;;;;;;-146.27;92.06;83746.38;5036830;28;20443;-75
2023/05/24 04:08:11;;;;;;;17.17;3.50;;;;;;;-146.27;92.12;83806.66;5047023;28;20028;-74
2023/05/24 04:10:37;;;;;;;13.23;3.40;;;;;;;-146.27;92.77;83786.56;5059973;28;20389;-74
2023/05/24 04:13:02;;;;;;;10.52;3.83;;;;;;;-146.27;92.84;83802.66;5030573;28;20497;-74
2023/05/24 04:15:27;;;;;;;10.88;3.53;;;;;;;-146.27;93.41;83798.63;5042088;28;20039;-74
2023/05/24 04:17:54;;;;;;;11.25;3.65;;;;;;;-146.27;93.41;83780.53;5032088;28;20053;-74
2023/05/24 04:20:26;;;;;;;17.02;3.95;;;;;;;-146.27;94.92;83744.38;5031465;28;20059;-73
2023/05/24 04:22:52;;;;;;;14.32;3.72;;;;;;;-146.27;93.97;83746.38;5028773;28;20112;-73
2023/05/24 04:25:18;;;;;;;17.25;5.07;;;;;;;-146.27;94.72;83722.28;5030165;28;20117;-73
2023/05/24 04:27:43;;;;;;;9.82;3.25;;;;;;;-146.27;94.80;83706.19;5030026;28;20112;-73
2023/05/24 04:30:10;;;;;;;13.82;4.40;;;;;;;-146.27;94.11;83688.09;5048464;28;20467;-74
2023/05/24 04:32:35;;;;;;;12.98;4.32;;;;;;;-146.27;95.12;83690.13;5048898;28;20037;-74
2023/05/24 04:35:01;;;;;;;18.58;4.80;;;;;;;-146.27;95.52;83674.03;5048673;28;20485;-75
2023/05/24 04:37:28;;;;;;;23.52;5.40;;;;;;;-146.27;96.35;83680.06;5032864;28;20369;-74
2023/05/24 04:39:54;;;;;;;20.50;4.60;;;;;;;-146.27;95.63;83621.81;5041440;28;20035;-74
2023/05/24 04:42:20;;;;;;;21.60;4.75;;;;;;;-146.27;95.23;83579.59;5047737;28;20042;-74
2023/05/24 04:44:45;;;;;;;17.83;4.13;;;;;;;-146.27;95.10;83567.53;5034672;28;20389;-74
2023/05/24 04:47:11;;;;;;;22.63;4.13;;;;;;;-146.27;94.39;83525.34;5030892;28;20028;-74
2023/05/24 04:49:37;;;;;;;11.75;4.05;;;;;;;-146.27;93.19;83515.31;5041092;28;20374;-74
2023/05/24 04:52:04;;;;;;;19.38;4.15;;;;;;;-146.27;93.16;83485.16;5043848;28;20541;-74
2023/05/24 04:54:29;;;;;;;20.40;4.53;;;;;;;-146.27;92.23;83487.16;5043277;28;20027;-74
2023/05/24 04:56:55;;;;;;;20.25;4.03;;;;;;;-146.27;92.79;83501.22;5047087;28;20021;-74
2023/05/24 04:59:20;;;;;;;21.25;4.65;;;;;;;-146.27;93.11;83436.94;5048789;28;20484;-74
2023/05/24 05:01:45;;;;;;;26.48;4.93;;;;;;;-146.27;91.91;83420.88;5048250;28;20132;-75
2023/05/24 05:04:11;;;;;;;20.48;3.65;;;;;;;-146.27;91.75;83451.00;5067076;28;20495;-74
2023/05/24 05:06:42;;;;;;;16.90;3.33;;;;;;;-146.27;91.00;83364.59;5046566;28;20033;-75
2023/05/24 05:09:13;;;;;;;22.73;5.35;;;;;;;-146.27;91.17;83396.75;5039665;28;20029;-75
2023/05/24 05:11:39;;;;;;;24.83;5.45;;;;;;;-146.27;89.94;83392.72;5036680;28;20046;-74
2023/05/24 05:14:05;;;;;;;17.65;3.85;;;;;;;-146.27;89.44;83366.59;5050145;28;20071;-74
2023/05/24 05:16:30;;;;;;;16.13;3.10;;;;;;;-146.27;89.32;83338.47;5036997;28;20031;-74
2023/05/24 05:18:56;;;;;;;18.42;3.28;;;;;;;-146.27;89.66;83394.75;5044343;28;20128;-74
2023/05/24 05:21:21;;;;;;;19.00;3.72;;;;;;;-146.27;89.38;83358.56;5044164;28;20060;-74
2023/05/24 05:23:47;;;;;;;22.77;3.75;;;;;;;-146.27;89.38;83352.53;5041059;28;20036;-74
2023/05/24 05:26:12;;;;;;;18.17;3.33;;;;;;;-146.27;89.48;83312.34;5045882;28;20017;-73
2023/05/24 05:28:37;;;;;;;23.00;4.53;;;;;;;-146.27;89.59;83312.34;5046741;28;20063;-75
2023/05/24 05:31:03;;;;;;;15.90;3.83;;;;;;;-146.27;90.83;83300.31;5040445;28;20352;-73
2023/05/24 05:33:31;;;;;;;19.77;3.83;;;;;;;-146.27;90.69;83264.13;5041567;28;20192;-73
2023/05/24 05:35:56;;;;;;;17.08;4.65;;;;;;;-146.27;89.93;83252.09;5036190;28;20047;-74
2023/05/24 05:38:21;;;;;;;18.67;3.65;;;;;;;-146.27;89.81;83211.91;5041150;28;20517;-74
2023/05/24 05:40:47;;;;;;;17.98;3.85;;;;;;;-146.27;90.10;83175.72;5055923;28;20035;-73
2023/05/24 05:43:12;;;;;;;19.52;4.57;;;;;;;-146.27;88.10;83236.00;5060372;28;20026;-74
2023/05/24 05:45:38;;;;;;;20.20;3.72;;;;;;;-146.27;87.72;83227.97;5048098;28;20520;-74
2023/05/24 05:48:03;;;;;;;21.88;4.07;;;;;;;-146.27;87.78;83203.88;5066908;28;20028;-74
2023/05/24 05:50:28;;;;;;;19.77;4.70;;;;;;;-146.27;88.08;83266.16;5049754;28;20029;-74
2023/05/24 05:52:54;;;;;;;14.82;3.40;;;;;;;-146.27;88.54;83256.09;5052948;28;20121;-75
2023/05/24 05:55:19;;;;;;;19.00;3.60;;;;;;;-146.27;88.67;83219.94;5048929;28;20049;-75
2023/05/24 05:57:45;;;;;;;13.43;3.42;;;;;;;-146.27;88.89;83232.00;5038542;28;20028;-76
2023/05/24 06:00:10;;;;;;;16.30;3.72;;;;;;;-146.27;88.47;83201.84;5061211;28;20055;-74
2023/05/24 06:02:36;;;;;;;22.35;3.97;;;;;;;-146.27;88.54;83195.81;5038091;28;20056;-74
2023/05/24 06:05:02;;;;;;;18.63;4.53;;;;;;;-146.27;89.53;83201.84;5032013;28;20474;-74
2023/05/24 06:07:27;;;;;;;22.27;4.93;;;;;;;-146.27;88.10;83205.88;5046153;28;20040;-74
2023/05/24 06:09:52;;;;;;;25.95;5.47;;;;;;;-146.27;86.95;83197.84;5039800;28;20060;-72
2023/05/24 06:12:18;;;;;;;18.20;4.50;;;;;;;-146.27;86.02;83171.72;5050601;28;20115;-74
2023/05/24 06:14:43;;;;;;;19.92;5.90;;;;;;;-146.27;86.05;83181.75;5052454;28;20064;-75
2023/05/24 06:17:08;;;;;;;22.92;6.53;;;;;;;-146.27;87.02;83143.59;5049085;28;20017;-75
2023/05/24 06:19:34;;;;;;;27.35;6.55;;;;;;;-146.27;87.30;83143.59;5053980;28;20028;-76
2023/05/24 06:22:00;;;;;;;16.70;5.25;;;;;;;-146.27;85.88;83091.34;5048120;28;20127;-76
2023/05/24 06:24:27;;;;;;;23.60;3.85;;;;;;;-146.27;84.51;83139.56;5055847;28;20492;-75
2023/05/24 06:26:53;;;;;;;18.45;3.80;;;;;;;-146.27;83.40;83131.53;5061775;28;20028;-75
2023/05/24 06:29:19;;;;;;;21.20;4.15;;;;;;;-146.27;82.44;83065.22;5051495;28;20028;-75
2023/05/24 06:31:46;;;;;;;21.88;3.83;;;;;;;-146.27;82.54;83135.53;5051417;28;20021;-76
2023/05/24 06:34:19;;;;;;;17.88;3.75;;;;;;;-146.27;82.40;83083.31;5061390;28;20029;-76
2023/05/24 06:36:46;;;;;;;;;;;;;;;-146.27;83.46;83059.19;5046327;28;20014;-75
2023/05/24 06:39:12;;;;;;;25.65;4.03;;;;;;;-146.27;82.06;83049.16;5044622;28;20379;-75
2023/05/24 06:41:38;;;;;;;18.58;3.22;;;;;;;-146.27;81.55;83053.16;5049943;28;20037;-75
2023/05/24 06:44:04;;;;;;;17.60;3.00;;;;;;;-146.27;79.32;83079.28;5052134;28;20025;-74
2023/05/24 06:46:29;;;;;;;22.80;4.82;;;;;;;-146.27;80.75;83079.28;5050078;28;20028;-74
2023/05/24 06:48:54;;;;;;;11.63;2.50;;;;;;;-146.27;80.31;83023.03;5036792;28;20036;-74
2023/05/24 06:51:20;;;;;;;14.98;3.63;;;;;;;-146.27;79.36;83035.09;5049300;28;20033;-74
2023/05/24 06:53:46;;;;;;;16.90;4.10;;;;;;;-146.27;81.45;83025.03;5046135;28;20504;-74
2023/05/24 06:56:11;;;;;;;16.65;3.33;;;;;;;-146.27;80.73;83051.16;5028959;28;20382;-75
2023/05/24 06:58:37;;;;;;;17.10;2.60;;;;;;;-146.27;79.57;82986.88;5034568;28;20465;-75
2023/05/24 07:01:03;;;;;;;18.85;3.80;;;;;;;-146.27;79.75;82980.84;5037561;28;20033;-74
2023/05/24 07:03:32;;;;;;;12.15;2.97;;;;;;;-146.27;78.79;82972.81;5050838;28;20028;-73
2023/05/24 07:05:57;;;;;;;11.40;2.67;;;;;;;-146.27;79.36;82946.69;5049828;28;20477;-74
2023/05/24 07:08:24;;;;;;;19.13;3.25;;;;;;;-146.27;79.76;82968.78;5042350;28;20029;-75
2023/05/24 07:10:49;;;;;;;21.77;3.63;;;;;;;-146.27;78.76;82940.66;5030952;28;20228;-74
2023/05/24 07:13:15;;;;;;;14.95;2.90;;;;;;;-146.27;79.73;82954.72;5041313;28;20360;-74
2023/05/24 07:15:41;;;;;;;14.45;2.60;;;;;;;-146.27;79.16;82928.59;5039783;28;20029;-74
2023/05/24 07:18:06;;;;;;;14.48;3.10;;;;;;;-146.27;78.49;82912.53;5030699;28;20030;-75
2023/05/24 07:20:32;;;;;;;13.45;2.33;;;;;;;-146.27;78.06;82926.59;5030730;28;20082;-74
2023/05/24 07:22:59;;;;;;;8.90;2.35;;;;;;;-146.27;78.12;82914.53;5031154;28;20485;-75
2023/05/24 07:25:24;;;;;;;14.60;3.08;;;;;;;-146.27;76.03;82906.50;5036407;28;20048;-75
2023/05/24 07:27:50;;;;;;;15.88;3.03;;;;;;;-146.27;77.29;82886.41;5050852;28;20028;-75
2023/05/24 07:30:15;;;;;;;18.25;3.17;;;;;;;-146.27;76.66;82846.25;5036389;28;20051;-76
2023/05/24 07:32:41;;;;;;;14.43;2.78;;;;;;;-146.27;76.44;82830.16;5045338;28;20057;-75
2023/05/24 07:35:07;;;;;;;15.73;3.05;;;;;;;-146.27;77.83;82789.97;5039041;28;20029;-74
2023/05/24 07:37:32;;;;;;;16.17;3.38;;;;;;;-146.27;76.35;82830.16;5034230;28;20551;-74
2023/05/24 07:39:57;;;;;;;14.60;3.08;;;;;;;-146.27;75.81;82830.16;5039958;28;20052;-75
2023/05/24 07:42:23;;;;;;;14.00;2.58;;;;;;;-146.27;74.57;82777.94;5047080;28;20393;-75
2023/05/24 07:44:48;;;;;;;11.48;2.90;;;;;;;-146.27;72.16;82796.00;5046700;28;20059;-75
2023/05/24 07:47:14;;;;;;;12.82;2.63;;;;;;;-146.27;73.07;82822.13;5045832;28;20026;-76
2023/05/24 07:49:40;;;;;;;18.23;3.58;;;;;;;-146.27;72.65;82761.84;5030328;28;20021;-75
2023/05/24 07:52:05;;;;;;;13.93;3.08;;;;;;;-146.27;73.08;82749.81;5034406;28;20029;-75
2023/05/24 07:54:30;;;;;;;20.10;3.08;;;;;;;-146.27;72.24;82715.66;5032073;28;20493;-75
2023/05/24 07:56:56;;;;;;;17.48;3.25;;;;;;;-146.27;72.54;82753.81;5040648;28;20024;-75
2023/05/24 07:59:22;;;;;;;17.42;3.35;;;;;;;-146.27;72.35;82705.59;5044120;28;20103;-75
2023/05/24 08:01:48;;;;;;;20.42;2.92;;;;;;;-146.27;71.81;82729.72;5033283;28;20037;-74
2023/05/24 08:04:13;;;;;;;13.27;2.67;;;;;;;-146.27;71.46;82673.47;5034398;28;20030;-74
2023/05/24 08:06:39;;;;;;;15.68;2.65;;;;;;;-146.27;70.59;82671.47;5038148;28;20032;-73
2023/05/24 08:09:06;;;;;;;8.82;2.38;;;;;;;-146.27;70.49;82631.28;5036966;28;20039;-73
2023/05/24 08:11:31;;;;;;;10.38;2.67;;;;;;;-146.27;68.97;82687.53;5048786;28;20507;-74
2023/05/24 08:13:57;;;;;;;15.45;2.60;;;;;;;-146.27;69.28;82587.09;5049256;28;20095;-75
2023/05/24 08:16:23;;;;;;;13.57;2.92;;;;;;;-146.27;68.69;82542.88;5045730;28;20026;-75
2023/05/24 08:18:48;;;;;;;15.27;3.33;;;;;;;-146.27;66.61;82597.13;5047668;28;20134;-75
2023/05/24 08:21:13;;;;;;;20.48;4.25;;;;;;;-146.27;66.71;82585.06;5050006;28;20036;-75
2023/05/24 08:23:39;;;;;;;19.05;4.35;;;;;;;-146.27;65.15;82577.03;5049968;28;20017;-75
2023/05/24 08:26:04;;;;;;;12.77;2.60;;;;;;;-146.27;64.26;82564.97;5035181;28;20044;-74
2023/05/24 08:28:30;;;;;;;9.07;2.10;;;;;;;-146.27;63.87;82585.06;5032675;28;20035;-74
2023/05/24 08:30:57;;;;;;;11.05;2.55;;;;;;;-146.27;65.20;82621.22;5047946;28;20110;-74
2023/05/24 08:33:22;;;;;;;13.20;2.70;;;;;;;-146.27;65.02;82633.28;5039611;28;20024;-75
2023/05/24 08:35:49;;;;;;;16.17;3.90;;;;;;;-146.27;64.97;82593.09;5033393;28;20028;-75
2023/05/24 08:38:17;;;;;;;12.52;2.92;;;;;;;-146.27;63.98;82548.91;5042715;28;20477;-76
2023/05/24 08:40:42;;;;;;;10.73;2.63;;;;;;;-146.27;66.90;82528.81;5050204;28;20142;-74
2023/05/24 08:43:10;;;;;;;11.35;2.40;;;;;;;-146.27;65.01;82514.75;5049731;28;20021;-74
2023/05/24 08:45:39;;;;;;;10.98;2.75;;;;;;;-146.27;64.02;82536.84;5049931;28;20484;-76
2023/05/24 08:48:07;;;;;;;13.13;3.20;;;;;;;-146.27;64.84;82524.81;5037074;28;20507;-74
2023/05/24 08:50:33;;;;;;;11.63;3.08;;;;;;;-146.27;66.49;82514.75;5028291;28;20048;-76
2023/05/24 08:53:01;;;;;;;7.93;2.35;;;;;;;-146.27;66.17;82498.69;5033718;28;20030;-76
2023/05/24 08:55:28;;;;;;;12.45;2.97;;;;;;;-146.27;64.92;82508.72;5029261;28;20021;-75
2023/05/24 08:57:55;;;;;;;15.25;2.70;;;;;;;-146.27;63.95;82474.59;5030507;28;20389;-77
2023/05/24 09:00:21;;;;;;;18.05;2.67;;;;;;;-146.27;62.41;82476.59;5045503;28;20053;-77
2023/05/24 09:02:46;;;;;;;22.10;3.13;;;;;;;-146.27;61.26;82454.50;5048948;28;20107;-79
2023/05/24 09:05:15;;;;;;;13.23;2.55;;;;;;;-146.27;63.22;82506.72;5047739;28;20033;-77
2023/05/24 09:07:42;;;;;;;19.58;2.95;;;;;;;-146.27;64.06;82412.31;5053161;28;20043;-75
2023/05/24 09:10:09;;;;;;;12.52;2.67;;;;;;;-146.27;62.05;82446.47;5035351;28;20040;-77
2023/05/24 09:12:36;;;;;;;12.45;3.22;;;;;;;-146.27;61.29;82392.22;5040006;28;20045;-77
2023/05/24 09:15:03;;;;;;;12.90;2.55;;;;;;;-146.27;60.48;82364.09;5050792;28;20036;-77
2023/05/24 09:17:33;;;;;;;13.10;2.83;;;;;;;-146.27;59.53;82337.97;5052001;28;20040;-77
2023/05/24 09:19:58;;;;;;;15.15;3.22;;;;;;;-146.27;59.05;82360.09;5050354;28;20033;-77
2023/05/24 09:22:27;;;;;;;17.60;2.75;;;;;;;-146.27;59.11;82303.84;5047736;28;20055;-78
2023/05/24 09:24:56;;;;;;;14.50;2.40;;;;;;;-146.27;58.37;82327.94;5045546;28;20017;-77
2023/05/24 09:27:22;;;;;;;21.30;2.80;;;;;;;-146.27;56.56;82255.63;5033806;28;20021;-76
2023/05/24 09:29:50;;;;;;;16.30;3.00;;;;;;;-146.27;58.03;82323.91;5036098;28;20021;-77
2023/05/24 09:32:17;;;;;;;15.07;2.00;;;;;;;-146.27;60.10;82285.75;5074374;28;20023;-77
2023/05/24 09:34:46;;;;;;;8.50;1.85;;;;;;;-146.27;58.42;82265.66;5034734;28;20031;-77
2023/05/24 09:37:16;;;;;;;10.75;2.33;;;;;;;-146.27;56.40;82317.91;5043314;28;20090;-77
2023/05/24 09:39:43;;;;;;;17.48;3.03;;;;;;;-146.27;56.83;82273.72;5038724;28;20029;-75
2023/05/24 09:42:13;;;;;;;10.15;2.13;;;;;;;-146.27;58.53;82269.69;5052957;28;20095;-75
2023/05/24 09:44:39;;;;;;;9.32;2.30;;;;;;;-146.27;60.76;82281.75;5045302;28;20025;-73
2023/05/24 09:47:04;;;;;;;17.15;2.80;;;;;;;-146.27;58.69;82121.03;5032464;28;20433;-74
2023/05/24 09:49:30;;;;;;;11.18;2.30;;;;;;;-146.27;56.46;82219.47;5031434;28;20437;-74
2023/05/24 09:51:56;;;;;;;7.47;2.42;;;;;;;-146.27;56.68;82181.31;5032756;28;20026;-75
2023/05/24 09:54:24;;;;;;;10.48;2.35;;;;;;;-146.27;55.25;82185.31;5032191;28;20036;-75
2023/05/24 09:56:50;;;;;;;13.73;2.65;;;;;;;-146.27;51.83;82127.06;5052095;28;20052;-75
2023/05/24 09:59:15;;;;;;;13.90;3.13;;;;;;;-146.27;51.30;82199.38;5052513;28;20526;-75
2023/05/24 10:01:41;;;;;;;11.02;2.65;;;;;;;-146.27;52.49;82167.25;5051447;28;20020;-75
2023/05/24 10:04:06;;;;;;;9.43;2.50;;;;;;;-146.27;51.78;82167.25;5034595;28;20021;-74
2023/05/24 10:06:36;;;;;;;16.67;2.85;;;;;;;-146.27;49.29;82177.28;5031246;28;20037;-73
2023/05/24 10:09:04;;;;;;;12.73;2.30;;;;;;;-146.27;50.05;82201.38;5032506;28;20493;-74
2023/05/24 10:11:31;;;;;;;11.38;2.20;;;;;;;-146.27;50.75;82157.19;5032744;28;20049;-75
2023/05/24 10:13:58;;;;;;;14.88;2.65;;;;;;;-146.27;53.99;82106.97;5035174;28;20116;-75
2023/05/24 10:16:24;;;;;;;18.10;2.38;;;;;;;-146.27;52.09;82113.00;5052929;28;20021;-74
2023/05/24 10:18:50;;;;;;;9.50;2.40;;;;;;;-146.27;50.73;82068.81;5052432;28;20021;-75
2023/05/24 10:21:18;;;;;;;11.63;2.30;;;;;;;-146.27;49.71;82064.81;5052493;28;20070;-75
2023/05/24 10:23:50;;;;;;;15.63;2.63;;;;;;;-146.27;52.98;82060.78;5031961;28;20029;-73
2023/05/24 10:26:17;;;;;;;11.95;2.53;;;;;;;-146.27;52.73;82022.63;5031871;28;20485;-75
2023/05/24 10:28:55;;;;;;;14.63;2.80;;;;;;;-146.27;49.66;81952.31;5032023;28;20029;-75
2023/05/24 10:31:26;;;;;;;11.77;2.30;;;;;;;-146.27;50.68;81982.44;5030674;28;20038;-75
2023/05/24 10:33:54;;;;;;;11.73;2.40;;;;;;;-146.27;47.44;81914.16;5032154;28;20037;-75
2023/05/24 10:36:20;;;;;;;12.13;2.17;;;;;;;-146.27;46.69;81880.00;5051801;28;20104;-75
2023/05/24 10:38:46;;;;;;;10.88;2.28;;;;;;;-146.27;47.84;81821.75;5035341;28;20439;-74
2023/05/24 10:41:12;;;;;;;10.48;2.13;;;;;;;-146.27;46.70;81753.47;5031823;28;20026;-74
2023/05/24 10:43:38;;;;;;;10.80;2.33;;;;;;;-146.27;47.37;81705.28;5031796;28;20036;-75
2023/05/24 10:46:07;;;;;;;7.93;2.10;;;;;;;-146.27;44.60;81647.03;5031395;28;20556;-74
2023/05/24 10:48:39;;;;;;;12.98;2.85;;;;;;;-146.27;44.33;81663.09;5030308;28;20029;-75
2023/05/24 10:51:38;;;;;;;11.05;2.97;;;;;;;-146.27;45.19;81689.19;5030249;28;20026;-75
2023/05/24 10:54:14;;;;;;;13.45;2.80;;;;;;;-146.27;46.09;81693.22;5019332;28;20063;-75
2023/05/24 10:56:45;;;;;;;13.52;2.58;;;;;;;-146.27;44.30;81651.03;5031226;28;20104;-75
2023/05/24 10:59:36;;;;;;;7.97;2.10;;;;;;;-146.27;44.89;81643.00;5031453;28;20068;-74
2023/05/24 11:02:13;;;;;;;11.68;2.08;;;;;;;-146.27;44.19;81588.78;5031271;28;20030;-75
2023/05/24 11:04:49;;;;;;;14.45;2.50;;;;;;;-146.27;42.82;81592.78;5035903;28;20032;-73
2023/05/24 11:07:15;;;;;;;10.65;2.50;;;;;;;-146.27;43.28;81620.91;5040508;28;20079;-74
2023/05/24 11:09:51;;;;;;;11.23;2.33;;;;;;;-146.27;43.89;81649.03;5030120;28;20489;-74